sensor_id;sensor_type;location;lat;lon;timestamp;temperature;humidity
73572;DHT22;61854;48.510;-2.770;2023-04-01T00:01:39;11.20;93.30
73572;DHT22;61854;48.510;-2.770;2023-04-01T00:04:05;11.20;93.30
73572;DHT22;61854;48.510;-2.770;2023-04-01T00:06:30;11.10;93.30
73572;DHT22;61854;48.510;-2.770;2023-04-01T00:08:56;11.10;93.60
73572;DHT22;61854;48.510;-2.770;2023-04-01T00:11:21;11.10;93.80
73572;DHT22;61854;48.510;-2.770;2023-04-01T00:13:47;11.10;93.60
73572;DHT22;61854;48.510;-2.770;2023-04-01T00:16:13;11.10;93.60
73572;DHT22;61854;48.510;-2.770;2023-04-01T00:18:38;11.10;93.40
73572;DHT22;61854;48.510;-2.770;2023-04-01T00:21:04;11.10;93.20
73572;DHT22;61854;48.510;-2.770;2023-04-01T00:23:33;11.10;93.10
73572;DHT22;61854;48.510;-2.770;2023-04-01T00:25:59;11.00;93.10
73572;DHT22;61854;48.510;-2.770;2023-04-01T00:28:25;11.00;93.10
73572;DHT22;61854;48.510;-2.770;2023-04-01T00:30:51;11.00;93.10
73572;DHT22;61854;48.510;-2.770;2023-04-01T00:33:17;11.00;92.80
73572;DHT22;61854;48.510;-2.770;2023-04-01T00:35:42;11.00;92.70
73572;DHT22;61854;48.510;-2.770;2023-04-01T00:38:08;11.10;92.50
73572;DHT22;61854;48.510;-2.770;2023-04-01T00:40:35;11.10;92.40
73572;DHT22;61854;48.510;-2.770;2023-04-01T00:43:00;11.10;92.60
73572;DHT22;61854;48.510;-2.770;2023-04-01T00:45:30;11.10;92.40
73572;DHT22;61854;48.510;-2.770;2023-04-01T00:47:56;11.10;92.60
73572;DHT22;61854;48.510;-2.770;2023-04-01T00:50:24;11.00;92.50
73572;DHT22;61854;48.510;-2.770;2023-04-01T00:52:50;11.00;92.70
73572;DHT22;61854;48.510;-2.770;2023-04-01T00:55:16;11.00;92.90
73572;DHT22;61854;48.510;-2.770;2023-04-01T00:57:42;11.00;93.10
73572;DHT22;61854;48.510;-2.770;2023-04-01T01:00:09;11.00;93.20
73572;DHT22;61854;48.510;-2.770;2023-04-01T01:02:35;11.00;93.50
73572;DHT22;61854;48.510;-2.770;2023-04-01T01:05:01;11.00;93.60
73572;DHT22;61854;48.510;-2.770;2023-04-01T01:07:42;11.10;93.70
73572;DHT22;61854;48.510;-2.770;2023-04-01T01:10:18;11.00;93.70
73572;DHT22;61854;48.510;-2.770;2023-04-01T01:13:00;11.00;94.00
73572;DHT22;61854;48.510;-2.770;2023-04-01T01:20:48;10.90;94.30
73572;DHT22;61854;48.510;-2.770;2023-04-01T01:31:20;10.80;94.30
73572;DHT22;61854;48.510;-2.770;2023-04-01T01:33:50;10.90;94.60
73572;DHT22;61854;48.510;-2.770;2023-04-01T01:36:17;10.80;95.80
73572;DHT22;61854;48.510;-2.770;2023-04-01T01:38:45;10.80;97.20
73572;DHT22;61854;48.510;-2.770;2023-04-01T01:41:11;10.70;98.00
73572;DHT22;61854;48.510;-2.770;2023-04-01T01:43:40;10.60;98.70
73572;DHT22;61854;48.510;-2.770;2023-04-01T01:46:09;10.50;99.10
73572;DHT22;61854;48.510;-2.770;2023-04-01T01:48:36;10.40;99.90
73572;DHT22;61854;48.510;-2.770;2023-04-01T01:51:06;10.30;99.90
73572;DHT22;61854;48.510;-2.770;2023-04-01T01:53:31;10.20;99.90
73572;DHT22;61854;48.510;-2.770;2023-04-01T01:55:57;10.20;99.90
73572;DHT22;61854;48.510;-2.770;2023-04-01T01:58:32;10.20;99.90
73572;DHT22;61854;48.510;-2.770;2023-04-01T02:01:06;10.30;99.90
73572;DHT22;61854;48.510;-2.770;2023-04-01T02:03:35;10.30;99.90
73572;DHT22;61854;48.510;-2.770;2023-04-01T02:06:03;10.20;99.90
73572;DHT22;61854;48.510;-2.770;2023-04-01T02:08:45;10.20;99.90
73572;DHT22;61854;48.510;-2.770;2023-04-01T02:11:13;10.20;99.80
73572;DHT22;61854;48.510;-2.770;2023-04-01T02:13:42;10.20;99.60
73572;DHT22;61854;48.510;-2.770;2023-04-01T02:16:13;10.10;99.40
73572;DHT22;61854;48.510;-2.770;2023-04-01T02:18:39;10.10;99.50
73572;DHT22;61854;48.510;-2.770;2023-04-01T02:21:06;10.20;99.40
73572;DHT22;61854;48.510;-2.770;2023-04-01T02:23:35;10.20;99.20
73572;DHT22;61854;48.510;-2.770;2023-04-01T02:26:02;10.30;99.30
73572;DHT22;61854;48.510;-2.770;2023-04-01T02:28:29;10.30;99.20
73572;DHT22;61854;48.510;-2.770;2023-04-01T02:30:55;10.30;99.10
73572;DHT22;61854;48.510;-2.770;2023-04-01T02:33:22;10.20;98.90
73572;DHT22;61854;48.510;-2.770;2023-04-01T02:35:48;10.20;98.70
73572;DHT22;61854;48.510;-2.770;2023-04-01T02:38:14;10.20;98.20
73572;DHT22;61854;48.510;-2.770;2023-04-01T02:40:41;10.30;97.90
73572;DHT22;61854;48.510;-2.770;2023-04-01T02:43:07;10.30;97.90
73572;DHT22;61854;48.510;-2.770;2023-04-01T02:45:33;10.30;97.80
73572;DHT22;61854;48.510;-2.770;2023-04-01T02:47:58;10.30;97.70
73572;DHT22;61854;48.510;-2.770;2023-04-01T02:50:24;10.30;97.70
73572;DHT22;61854;48.510;-2.770;2023-04-01T02:52:49;10.40;97.70
73572;DHT22;61854;48.510;-2.770;2023-04-01T02:55:15;10.40;98.00
73572;DHT22;61854;48.510;-2.770;2023-04-01T02:57:40;10.40;98.30
73572;DHT22;61854;48.510;-2.770;2023-04-01T03:00:06;10.40;98.80
73572;DHT22;61854;48.510;-2.770;2023-04-01T03:02:37;10.40;99.40
73572;DHT22;61854;48.510;-2.770;2023-04-01T03:05:02;10.30;99.20
73572;DHT22;61854;48.510;-2.770;2023-04-01T03:07:28;10.30;99.40
73572;DHT22;61854;48.510;-2.770;2023-04-01T03:09:53;10.30;99.70
73572;DHT22;61854;48.510;-2.770;2023-04-01T03:12:19;10.20;99.70
73572;DHT22;61854;48.510;-2.770;2023-04-01T03:14:46;10.30;99.60
73572;DHT22;61854;48.510;-2.770;2023-04-01T03:17:11;10.30;99.20
73572;DHT22;61854;48.510;-2.770;2023-04-01T03:19:37;10.30;98.70
73572;DHT22;61854;48.510;-2.770;2023-04-01T03:22:02;10.30;98.20
73572;DHT22;61854;48.510;-2.770;2023-04-01T03:24:28;10.30;97.80
73572;DHT22;61854;48.510;-2.770;2023-04-01T03:26:53;10.30;97.60
73572;DHT22;61854;48.510;-2.770;2023-04-01T03:29:19;10.30;97.30
73572;DHT22;61854;48.510;-2.770;2023-04-01T03:31:45;10.30;97.20
73572;DHT22;61854;48.510;-2.770;2023-04-01T03:34:10;10.30;97.20
73572;DHT22;61854;48.510;-2.770;2023-04-01T03:36:36;10.40;96.90
73572;DHT22;61854;48.510;-2.770;2023-04-01T03:39:01;10.30;96.90
73572;DHT22;61854;48.510;-2.770;2023-04-01T03:41:28;10.30;96.80
73572;DHT22;61854;48.510;-2.770;2023-04-01T03:43:53;10.20;96.80
73572;DHT22;61854;48.510;-2.770;2023-04-01T03:46:20;10.20;96.90
73572;DHT22;61854;48.510;-2.770;2023-04-01T03:48:46;10.10;97.00
73572;DHT22;61854;48.510;-2.770;2023-04-01T03:51:11;10.10;97.00
73572;DHT22;61854;48.510;-2.770;2023-04-01T03:53:37;10.10;96.90
73572;DHT22;61854;48.510;-2.770;2023-04-01T03:56:04;10.00;96.80
73572;DHT22;61854;48.510;-2.770;2023-04-01T03:58:29;10.00;96.80
73572;DHT22;61854;48.510;-2.770;2023-04-01T04:00:55;10.00;96.80
73572;DHT22;61854;48.510;-2.770;2023-04-01T04:03:20;9.90;96.90
73572;DHT22;61854;48.510;-2.770;2023-04-01T04:05:49;9.90;97.00
73572;DHT22;61854;48.510;-2.770;2023-04-01T04:08:15;9.90;96.90
73572;DHT22;61854;48.510;-2.770;2023-04-01T04:10:41;9.90;97.10
73572;DHT22;61854;48.510;-2.770;2023-04-01T04:13:06;9.90;97.10
73572;DHT22;61854;48.510;-2.770;2023-04-01T04:15:35;9.90;97.10
73572;DHT22;61854;48.510;-2.770;2023-04-01T04:18:00;10.00;97.20
73572;DHT22;61854;48.510;-2.770;2023-04-01T04:20:26;9.90;97.10
73572;DHT22;61854;48.510;-2.770;2023-04-01T04:22:51;9.90;97.00
73572;DHT22;61854;48.510;-2.770;2023-04-01T04:25:17;9.90;96.90
73572;DHT22;61854;48.510;-2.770;2023-04-01T04:27:43;9.90;97.10
73572;DHT22;61854;48.510;-2.770;2023-04-01T04:30:09;9.90;97.30
73572;DHT22;61854;48.510;-2.770;2023-04-01T04:32:34;9.90;97.40
73572;DHT22;61854;48.510;-2.770;2023-04-01T04:35:00;9.90;97.40
73572;DHT22;61854;48.510;-2.770;2023-04-01T04:37:26;9.90;97.50
73572;DHT22;61854;48.510;-2.770;2023-04-01T04:39:51;9.90;97.50
73572;DHT22;61854;48.510;-2.770;2023-04-01T04:42:17;9.90;97.60
73572;DHT22;61854;48.510;-2.770;2023-04-01T04:44:42;9.90;97.50
73572;DHT22;61854;48.510;-2.770;2023-04-01T04:47:08;9.90;97.30
73572;DHT22;61854;48.510;-2.770;2023-04-01T04:49:33;9.90;97.20
73572;DHT22;61854;48.510;-2.770;2023-04-01T04:51:59;9.90;96.90
73572;DHT22;61854;48.510;-2.770;2023-04-01T04:54:24;10.00;97.00
73572;DHT22;61854;48.510;-2.770;2023-04-01T04:56:53;9.90;96.70
73572;DHT22;61854;48.510;-2.770;2023-04-01T04:59:18;9.90;96.70
73572;DHT22;61854;48.510;-2.770;2023-04-01T05:01:44;9.80;96.80
73572;DHT22;61854;48.510;-2.770;2023-04-01T05:04:09;9.80;96.90
73572;DHT22;61854;48.510;-2.770;2023-04-01T05:06:35;9.80;97.00
73572;DHT22;61854;48.510;-2.770;2023-04-01T05:09:00;9.70;96.90
73572;DHT22;61854;48.510;-2.770;2023-04-01T05:11:26;9.80;97.00
73572;DHT22;61854;48.510;-2.770;2023-04-01T05:13:52;9.70;96.90
73572;DHT22;61854;48.510;-2.770;2023-04-01T05:16:18;9.70;97.00
73572;DHT22;61854;48.510;-2.770;2023-04-01T05:18:44;9.70;96.80
73572;DHT22;61854;48.510;-2.770;2023-04-01T05:21:11;9.70;96.60
73572;DHT22;61854;48.510;-2.770;2023-04-01T05:23:38;9.70;96.70
73572;DHT22;61854;48.510;-2.770;2023-04-01T05:26:08;9.70;96.70
73572;DHT22;61854;48.510;-2.770;2023-04-01T05:28:34;9.70;96.80
73572;DHT22;61854;48.510;-2.770;2023-04-01T05:31:00;9.70;96.80
73572;DHT22;61854;48.510;-2.770;2023-04-01T05:33:26;9.70;96.90
73572;DHT22;61854;48.510;-2.770;2023-04-01T05:35:52;9.70;97.00
73572;DHT22;61854;48.510;-2.770;2023-04-01T05:38:17;9.70;97.00
73572;DHT22;61854;48.510;-2.770;2023-04-01T05:40:43;9.80;97.20
73572;DHT22;61854;48.510;-2.770;2023-04-01T05:43:08;9.80;97.10
73572;DHT22;61854;48.510;-2.770;2023-04-01T05:45:34;9.90;97.00
73572;DHT22;61854;48.510;-2.770;2023-04-01T05:48:00;9.90;96.90
73572;DHT22;61854;48.510;-2.770;2023-04-01T05:50:25;10.00;97.00
73572;DHT22;61854;48.510;-2.770;2023-04-01T05:52:51;9.90;97.10
73572;DHT22;61854;48.510;-2.770;2023-04-01T05:55:17;10.00;97.40
73572;DHT22;61854;48.510;-2.770;2023-04-01T05:57:44;10.00;97.50
73572;DHT22;61854;48.510;-2.770;2023-04-01T06:00:10;9.90;97.70
73572;DHT22;61854;48.510;-2.770;2023-04-01T06:02:35;9.90;97.80
73572;DHT22;61854;48.510;-2.770;2023-04-01T06:05:19;9.80;97.90
73572;DHT22;61854;48.510;-2.770;2023-04-01T06:07:45;9.80;98.10
73572;DHT22;61854;48.510;-2.770;2023-04-01T06:10:15;9.80;98.20
73572;DHT22;61854;48.510;-2.770;2023-04-01T06:15:20;9.80;98.20
73572;DHT22;61854;48.510;-2.770;2023-04-01T06:20:37;9.70;98.30
73572;DHT22;61854;48.510;-2.770;2023-04-01T06:23:13;9.70;98.20
73572;DHT22;61854;48.510;-2.770;2023-04-01T06:28:30;9.90;98.20
73572;DHT22;61854;48.510;-2.770;2023-04-01T06:39:26;10.20;96.80
73572;DHT22;61854;48.510;-2.770;2023-04-01T06:41:56;10.20;96.80
73572;DHT22;61854;48.510;-2.770;2023-04-01T06:44:37;10.20;96.60
73572;DHT22;61854;48.510;-2.770;2023-04-01T06:47:30;10.20;96.40
73572;DHT22;61854;48.510;-2.770;2023-04-01T06:55:15;10.40;95.90
73572;DHT22;61854;48.510;-2.770;2023-04-01T06:57:49;10.40;95.90
73572;DHT22;61854;48.510;-2.770;2023-04-01T07:00:34;10.40;95.90
73572;DHT22;61854;48.510;-2.770;2023-04-01T07:05:45;10.30;96.10
73572;DHT22;61854;48.510;-2.770;2023-04-01T07:08:16;10.30;96.10
73572;DHT22;61854;48.510;-2.770;2023-04-01T07:13:25;10.30;96.50
73572;DHT22;61854;48.510;-2.770;2023-04-01T07:15:57;10.30;96.70
73572;DHT22;61854;48.510;-2.770;2023-04-01T07:18:28;10.40;96.60
73572;DHT22;61854;48.510;-2.770;2023-04-01T07:20:54;10.60;96.70
73572;DHT22;61854;48.510;-2.770;2023-04-01T07:23:24;10.90;96.30
73572;DHT22;61854;48.510;-2.770;2023-04-01T07:25:55;11.20;95.20
73572;DHT22;61854;48.510;-2.770;2023-04-01T07:28:21;11.20;94.50
73572;DHT22;61854;48.510;-2.770;2023-04-01T07:33:45;11.00;94.30
73572;DHT22;61854;48.510;-2.770;2023-04-01T07:36:29;11.00;94.50
73572;DHT22;61854;48.510;-2.770;2023-04-01T07:39:21;11.00;94.50
73572;DHT22;61854;48.510;-2.770;2023-04-01T07:46:50;11.60;92.90
73572;DHT22;61854;48.510;-2.770;2023-04-01T07:52:06;11.70;92.50
73572;DHT22;61854;48.510;-2.770;2023-04-01T07:57:34;11.50;92.20
73572;DHT22;61854;48.510;-2.770;2023-04-01T08:02:59;11.40;92.70
73572;DHT22;61854;48.510;-2.770;2023-04-01T08:05:53;11.40;92.50
73572;DHT22;61854;48.510;-2.770;2023-04-01T08:08:19;11.30;92.50
73572;DHT22;61854;48.510;-2.770;2023-04-01T08:10:52;11.30;93.00
73572;DHT22;61854;48.510;-2.770;2023-04-01T08:15:52;11.30;93.10
73572;DHT22;61854;48.510;-2.770;2023-04-01T08:20:53;11.30;92.50
73572;DHT22;61854;48.510;-2.770;2023-04-01T08:23:22;11.30;92.10
73572;DHT22;61854;48.510;-2.770;2023-04-01T08:30:57;11.30;92.30
73572;DHT22;61854;48.510;-2.770;2023-04-01T08:33:27;11.30;92.70
73572;DHT22;61854;48.510;-2.770;2023-04-01T08:36:13;11.40;92.60
73572;DHT22;61854;48.510;-2.770;2023-04-01T08:52:11;11.60;91.30
73572;DHT22;61854;48.510;-2.770;2023-04-01T08:54:57;11.60;91.10
73572;DHT22;61854;48.510;-2.770;2023-04-01T09:00:17;11.70;91.10
73572;DHT22;61854;48.510;-2.770;2023-04-01T09:13:23;11.90;90.70
73572;DHT22;61854;48.510;-2.770;2023-04-01T09:18:40;12.40;88.50
73572;DHT22;61854;48.510;-2.770;2023-04-01T09:29:02;12.40;86.40
73572;DHT22;61854;48.510;-2.770;2023-04-01T09:39:35;12.00;92.00
73572;DHT22;61854;48.510;-2.770;2023-04-01T09:50:28;11.60;94.70
73572;DHT22;61854;48.510;-2.770;2023-04-01T10:00:45;11.30;92.50
73572;DHT22;61854;48.510;-2.770;2023-04-01T10:28:19;12.10;90.20
73572;DHT22;61854;48.510;-2.770;2023-04-01T10:31:06;12.20;90.50
73572;DHT22;61854;48.510;-2.770;2023-04-01T10:46:28;12.60;84.60
73572;DHT22;61854;48.510;-2.770;2023-04-01T10:49:10;12.70;84.30
73572;DHT22;61854;48.510;-2.770;2023-04-01T10:54:18;13.00;81.40
73572;DHT22;61854;48.510;-2.770;2023-04-01T10:56:54;13.00;82.50
73572;DHT22;61854;48.510;-2.770;2023-04-01T11:12:05;12.90;90.10
73572;DHT22;61854;48.510;-2.770;2023-04-01T11:17:15;12.00;94.00
73572;DHT22;61854;48.510;-2.770;2023-04-01T11:20:02;11.80;95.00
73572;DHT22;61854;48.510;-2.770;2023-04-01T11:27:29;11.80;95.30
73572;DHT22;61854;48.510;-2.770;2023-04-01T11:37:51;12.10;93.10
73572;DHT22;61854;48.510;-2.770;2023-04-01T11:40:25;12.10;93.80
73572;DHT22;61854;48.510;-2.770;2023-04-01T11:45:35;12.30;91.20
73572;DHT22;61854;48.510;-2.770;2023-04-01T11:50:40;12.60;89.50
73572;DHT22;61854;48.510;-2.770;2023-04-01T12:13:39;12.10;90.90
73572;DHT22;61854;48.510;-2.770;2023-04-01T12:16:12;12.20;90.50
73572;DHT22;61854;48.510;-2.770;2023-04-01T12:18:55;12.20;88.20
73572;DHT22;61854;48.510;-2.770;2023-04-01T12:21:25;12.10;87.50
73572;DHT22;61854;48.510;-2.770;2023-04-01T12:26:47;12.00;87.50
73572;DHT22;61854;48.510;-2.770;2023-04-01T12:31:53;12.20;88.80
73572;DHT22;61854;48.510;-2.770;2023-04-01T12:50:20;13.30;80.20
73572;DHT22;61854;48.510;-2.770;2023-04-01T12:52:58;13.30;80.50
73572;DHT22;61854;48.510;-2.770;2023-04-01T12:55:41;13.30;80.80
73572;DHT22;61854;48.510;-2.770;2023-04-01T13:00:38;13.10;82.60
73572;DHT22;61854;48.510;-2.770;2023-04-01T13:05:37;13.20;80.60
73572;DHT22;61854;48.510;-2.770;2023-04-01T13:10:50;13.70;78.00
73572;DHT22;61854;48.510;-2.770;2023-04-01T13:18:31;14.30;74.80
73572;DHT22;61854;48.510;-2.770;2023-04-01T13:21:03;14.40;72.20
73572;DHT22;61854;48.510;-2.770;2023-04-01T13:29:07;14.60;68.90
73572;DHT22;61854;48.510;-2.770;2023-04-01T13:31:58;14.50;66.80
73572;DHT22;61854;48.510;-2.770;2023-04-01T13:34:29;14.40;67.20
73572;DHT22;61854;48.510;-2.770;2023-04-01T13:39:40;14.80;66.60
73572;DHT22;61854;48.510;-2.770;2023-04-01T13:55:26;15.60;57.10
73572;DHT22;61854;48.510;-2.770;2023-04-01T14:14:11;17.60;52.40
73572;DHT22;61854;48.510;-2.770;2023-04-01T14:16:51;17.20;53.10
73572;DHT22;61854;48.510;-2.770;2023-04-01T14:19:23;16.80;53.00
73572;DHT22;61854;48.510;-2.770;2023-04-01T14:22:13;16.50;55.90
73572;DHT22;61854;48.510;-2.770;2023-04-01T14:32:57;16.10;58.50
73572;DHT22;61854;48.510;-2.770;2023-04-01T14:43:10;16.50;55.50
73572;DHT22;61854;48.510;-2.770;2023-04-01T14:45:50;16.50;55.70
73572;DHT22;61854;48.510;-2.770;2023-04-01T14:48:21;16.70;55.00
73572;DHT22;61854;48.510;-2.770;2023-04-01T14:50:52;16.50;56.60
73572;DHT22;61854;48.510;-2.770;2023-04-01T14:58:13;16.60;58.90
73572;DHT22;61854;48.510;-2.770;2023-04-01T15:08:25;15.80;61.60
73572;DHT22;61854;48.510;-2.770;2023-04-01T15:21:14;16.10;60.60
73572;DHT22;61854;48.510;-2.770;2023-04-01T15:28:39;15.40;63.60
73572;DHT22;61854;48.510;-2.770;2023-04-01T15:38:51;14.60;70.10
73572;DHT22;61854;48.510;-2.770;2023-04-01T15:44:02;14.70;70.30
73572;DHT22;61854;48.510;-2.770;2023-04-01T15:46:47;14.50;71.10
73572;DHT22;61854;48.510;-2.770;2023-04-01T15:49:24;14.40;71.90
73572;DHT22;61854;48.510;-2.770;2023-04-01T16:07:12;16.70;65.90
73572;DHT22;61854;48.510;-2.770;2023-04-01T16:12:19;15.90;67.40
73572;DHT22;61854;48.510;-2.770;2023-04-01T16:22:41;14.40;74.20
73572;DHT22;61854;48.510;-2.770;2023-04-01T16:30:37;14.30;76.90
73572;DHT22;61854;48.510;-2.770;2023-04-01T16:33:14;14.60;75.10
73572;DHT22;61854;48.510;-2.770;2023-04-01T16:35:47;15.10;73.20
73572;DHT22;61854;48.510;-2.770;2023-04-01T16:43:43;14.40;75.60
73572;DHT22;61854;48.510;-2.770;2023-04-01T16:48:52;13.90;77.70
73572;DHT22;61854;48.510;-2.770;2023-04-01T16:51:22;13.60;78.00
73572;DHT22;61854;48.510;-2.770;2023-04-01T16:54:12;13.40;78.80
73572;DHT22;61854;48.510;-2.770;2023-04-01T16:56:42;13.20;80.10
73572;DHT22;61854;48.510;-2.770;2023-04-01T16:59:17;13.10;83.20
73572;DHT22;61854;48.510;-2.770;2023-04-01T17:07:22;13.00;84.60
73572;DHT22;61854;48.510;-2.770;2023-04-01T17:10:00;13.10;84.50
73572;DHT22;61854;48.510;-2.770;2023-04-01T17:15:27;13.10;85.80
73572;DHT22;61854;48.510;-2.770;2023-04-01T17:18:14;13.20;85.40
73572;DHT22;61854;48.510;-2.770;2023-04-01T17:20:48;13.10;85.20
73572;DHT22;61854;48.510;-2.770;2023-04-01T17:23:36;13.10;85.90
73572;DHT22;61854;48.510;-2.770;2023-04-01T17:46:37;12.50;87.80
73572;DHT22;61854;48.510;-2.770;2023-04-01T17:49:27;12.40;88.00
73572;DHT22;61854;48.510;-2.770;2023-04-01T17:51:59;12.40;88.80
73572;DHT22;61854;48.510;-2.770;2023-04-01T17:57:21;12.30;90.90
73572;DHT22;61854;48.510;-2.770;2023-04-01T18:02:23;12.30;91.70
73572;DHT22;61854;48.510;-2.770;2023-04-01T18:04:59;12.10;91.60
73572;DHT22;61854;48.510;-2.770;2023-04-01T18:07:32;12.10;91.80
73572;DHT22;61854;48.510;-2.770;2023-04-01T18:12:38;11.80;92.10
73572;DHT22;61854;48.510;-2.770;2023-04-01T18:17:57;11.70;92.60
73572;DHT22;61854;48.510;-2.770;2023-04-01T18:25:37;11.50;93.30
73572;DHT22;61854;48.510;-2.770;2023-04-01T18:30:40;11.40;93.60
73572;DHT22;61854;48.510;-2.770;2023-04-01T18:35:52;11.40;93.80
73572;DHT22;61854;48.510;-2.770;2023-04-01T18:38:31;11.40;94.00
73572;DHT22;61854;48.510;-2.770;2023-04-01T18:43:30;11.40;94.40
73572;DHT22;61854;48.510;-2.770;2023-04-01T18:54:26;11.40;96.20
73572;DHT22;61854;48.510;-2.770;2023-04-01T18:56:59;11.30;96.60
73572;DHT22;61854;48.510;-2.770;2023-04-01T18:59:34;11.30;96.90
73572;DHT22;61854;48.510;-2.770;2023-04-01T19:02:19;11.20;97.60
73572;DHT22;61854;48.510;-2.770;2023-04-01T19:04:56;11.20;98.00
73572;DHT22;61854;48.510;-2.770;2023-04-01T19:17:46;11.10;99.20
73572;DHT22;61854;48.510;-2.770;2023-04-01T19:22:49;11.10;98.90
73572;DHT22;61854;48.510;-2.770;2023-04-01T19:25:27;11.10;99.10
73572;DHT22;61854;48.510;-2.770;2023-04-01T19:28:01;11.10;99.40
73572;DHT22;61854;48.510;-2.770;2023-04-01T19:30:51;11.10;99.40
73572;DHT22;61854;48.510;-2.770;2023-04-01T19:38:40;11.10;99.70
73572;DHT22;61854;48.510;-2.770;2023-04-01T19:44:04;11.10;99.70
73572;DHT22;61854;48.510;-2.770;2023-04-01T19:46:33;11.10;99.60
73572;DHT22;61854;48.510;-2.770;2023-04-01T19:49:02;11.20;99.70
73572;DHT22;61854;48.510;-2.770;2023-04-01T19:56:42;11.20;99.60
73572;DHT22;61854;48.510;-2.770;2023-04-01T20:04:15;11.20;99.60
73572;DHT22;61854;48.510;-2.770;2023-04-01T20:12:00;11.30;99.50
73572;DHT22;61854;48.510;-2.770;2023-04-01T20:14:30;11.30;99.50
73572;DHT22;61854;48.510;-2.770;2023-04-01T20:17:11;11.30;99.60
73572;DHT22;61854;48.510;-2.770;2023-04-01T20:22:52;11.30;99.50
73572;DHT22;61854;48.510;-2.770;2023-04-01T20:27:53;11.40;99.50
73572;DHT22;61854;48.510;-2.770;2023-04-01T20:30:26;11.40;99.50
73572;DHT22;61854;48.510;-2.770;2023-04-01T20:33:01;11.40;99.50
73572;DHT22;61854;48.510;-2.770;2023-04-01T20:35:44;11.40;99.60
73572;DHT22;61854;48.510;-2.770;2023-04-01T20:38:19;11.40;99.50
73572;DHT22;61854;48.510;-2.770;2023-04-01T20:40:51;11.40;99.50
73572;DHT22;61854;48.510;-2.770;2023-04-01T20:43:24;11.30;99.40
73572;DHT22;61854;48.510;-2.770;2023-04-01T20:50:52;11.30;99.50
73572;DHT22;61854;48.510;-2.770;2023-04-01T20:53:20;11.30;99.50
73572;DHT22;61854;48.510;-2.770;2023-04-01T20:58:24;11.30;99.50
73572;DHT22;61854;48.510;-2.770;2023-04-01T21:03:45;11.30;99.50
73572;DHT22;61854;48.510;-2.770;2023-04-01T21:06:17;11.30;99.60
73572;DHT22;61854;48.510;-2.770;2023-04-01T21:08:53;11.30;99.50
73572;DHT22;61854;48.510;-2.770;2023-04-01T21:16:49;11.20;99.30
73572;DHT22;61854;48.510;-2.770;2023-04-01T21:27:09;11.10;99.20
73572;DHT22;61854;48.510;-2.770;2023-04-01T22:00:48;11.10;99.40
73572;DHT22;61854;48.510;-2.770;2023-04-01T22:13:26;11.10;99.30
73572;DHT22;61854;48.510;-2.770;2023-04-01T22:26:04;11.10;99.30
73572;DHT22;61854;48.510;-2.770;2023-04-01T22:31:00;11.20;99.10
73572;DHT22;61854;48.510;-2.770;2023-04-01T22:36:16;11.10;99.10
73572;DHT22;61854;48.510;-2.770;2023-04-01T22:44:03;11.10;98.80
73572;DHT22;61854;48.510;-2.770;2023-04-01T22:51:43;11.10;98.30
73572;DHT22;61854;48.510;-2.770;2023-04-01T22:54:31;11.10;98.20
73572;DHT22;61854;48.510;-2.770;2023-04-01T22:57:02;11.10;97.80
73572;DHT22;61854;48.510;-2.770;2023-04-01T22:59:35;11.10;97.90
73572;DHT22;61854;48.510;-2.770;2023-04-01T23:02:04;11.10;97.90
73572;DHT22;61854;48.510;-2.770;2023-04-01T23:04:33;11.00;97.80
73572;DHT22;61854;48.510;-2.770;2023-04-01T23:07:04;10.90;97.70
73572;DHT22;61854;48.510;-2.770;2023-04-01T23:09:31;10.90;97.90
73572;DHT22;61854;48.510;-2.770;2023-04-01T23:12:00;10.90;97.90
73572;DHT22;61854;48.510;-2.770;2023-04-01T23:19:34;10.90;97.70
73572;DHT22;61854;48.510;-2.770;2023-04-01T23:24:50;10.90;97.70
73572;DHT22;61854;48.510;-2.770;2023-04-01T23:27:17;10.90;97.70
73572;DHT22;61854;48.510;-2.770;2023-04-01T23:29:45;10.90;97.70
73572;DHT22;61854;48.510;-2.770;2023-04-01T23:32:17;11.00;97.70
73572;DHT22;61854;48.510;-2.770;2023-04-01T23:34:47;10.90;97.70
73572;DHT22;61854;48.510;-2.770;2023-04-01T23:37:14;10.90;97.70
73572;DHT22;61854;48.510;-2.770;2023-04-01T23:39:43;10.90;97.70
73572;DHT22;61854;48.510;-2.770;2023-04-01T23:42:25;11.00;97.50
73572;DHT22;61854;48.510;-2.770;2023-04-01T23:44:52;10.90;97.60
73572;DHT22;61854;48.510;-2.770;2023-04-01T23:47:20;10.90;97.70
73572;DHT22;61854;48.510;-2.770;2023-04-01T23:49:57;10.90;97.70
73572;DHT22;61854;48.510;-2.770;2023-04-01T23:52:24;10.90;97.70
73572;DHT22;61854;48.510;-2.770;2023-04-01T23:55:03;10.90;97.70
73572;DHT22;61854;48.510;-2.770;2023-04-01T23:57:31;10.90;97.70
